Celebrity Century — 9HJI9 — position and weather

sailwx.info

Track history (hours):
 
Tides and Currents Weather Stations Pressure Air Temp Water Temp Dewpoint Dewpoint Depression Visibility Wind Speed Wind Dir Waves Ship Positions

Celebrity Century

Last reported at 2017-Nov-19 13:31 UTC. Time now 2017-Nov-24 22:23 UTC.
Position N 21°57' E 113°53'.

Length 251 m; draft 8 m.

Type: Passenger vessel. MMSI: 249054000.

Date/timePositionNaut miles runAvg speedWind from/ knotsBaromVisibWave heightAir tempDewpointWater temp
2017-Nov-19 13:31N 21°57' E 113°53'015.2
2017-Nov-19 13:30N 21°57' E 113°53'714.6
2017-Nov-19 13:00N 22°04' E 113°51'5 9.0
2017-Nov-19 12:30N 22°08' E 113°51'3 5.4
2017-Nov-19 12:00N 22°11' E 113°50'4 7.6
2017-Nov-19 11:30N 22°15' E 113°49'713.6
2017-Nov-19 11:00N 22°21' E 113°49'713.1
2017-Nov-19 10:30N 22°27' E 113°53'2 3.3
2017-Nov-19 09:58N 22°28' E 113°55'0 0.0
2017-Nov-19 09:28N 22°28' E 113°55'0 0.0
2017-Nov-19 08:58N 22°28' E 113°55'0 0.0
2017-Nov-19 08:28N 22°28' E 113°55'0 0.0
2017-Nov-19 07:55N 22°28' E 113°55'0 0.0
2017-Nov-19 07:28N 22°28' E 113°55'0 0.0
2017-Nov-19 06:58N 22°28' E 113°55'0 0.0
2017-Nov-19 06:25N 22°28' E 113°55'0 0.0
2017-Nov-19 05:58N 22°28' E 113°55'0 0.0
2017-Nov-19 05:28N 22°28' E 113°55'0 0.0
2017-Nov-19 04:58N 22°28' E 113°55'0 0.0
2017-Nov-19 04:28N 22°28' E 113°55'0 0.0
2017-Nov-19 03:58N 22°28' E 113°55'0 0.0
2017-Nov-19 03:28N 22°28' E 113°55'0 0.0
2017-Nov-19 02:58N 22°28' E 113°55'0 0.0
2017-Nov-19 02:28N 22°28' E 113°55'0 0.0
2017-Nov-19 02:00N 22°28' E 113°55'4 7.5
2017-Nov-19 01:30N 22°26' E 113°52'815.8
2017-Nov-19 01:00N 22°18' E 113°48'713.1
2017-Nov-19 00:30N 22°12' E 113°50'713.9
2017-Nov-19 00:00N 22°05' E 113°51'5 9.8
2017-Nov-18 23:30N 22°00' E 113°52'713.2
2017-Nov-18 23:00N 21°58' E 113°58'917.7
2017-Nov-18 22:30N 21°57' E 114°08'1218.2
2017-Nov-18 21:52N 21°59' E 114°20'718.9
2017-Nov-18 21:30N 22°00' E 114°27'1019.2
2017-Nov-18 20:59N 22°01' E 114°38'918.7
2017-Nov-18 20:30N 22°03' E 114°47'1019.2
2017-Nov-18 20:00N 22°06' E 114°57'1019.1
2017-Nov-18 19:30N 22°09' E 115°07'918.7
2017-Nov-18 19:00N 22°11' E 115°17'1018.5
2017-Nov-18 18:28N 22°13' E 115°28'  
2017-Nov-15 15:55N 22°15' E 115°35'718.1
2017-Nov-15 15:31N 22°13' E 115°27'918.2
2017-Nov-15 15:00N 22°10' E 115°17'918.0
2017-Nov-15 14:28N 22°08' E 115°07'817.9
2017-Nov-15 14:00N 22°06' E 114°59'917.8
2017-Nov-15 13:30N 22°05' E 114°49'917.8
2017-Nov-15 13:00N 22°03' E 114°40'917.6
2017-Nov-15 12:31N 22°01' E 114°31'917.5
2017-Nov-15 12:01N 21°59' E 114°21'1916.8
2017-Nov-15 10:53N 21°59' E 114°01'717.3
2017-Nov-15 10:30N 22°01' E 113°54'713.9
2017-Nov-15 10:00N 22°07' E 113°51'5 9.9
2017-Nov-15 09:30N 22°12' E 113°49'713.6
2017-Nov-15 09:01N 22°19' E 113°48'713.5
2017-Nov-15 08:30N 22°25' E 113°51'5 9.0
2017-Nov-15 08:01N 22°28' E 113°54'0 0.4
2017-Nov-15 07:29N 22°28' E 113°55'0 0.0
2017-Nov-15 06:56N 22°28' E 113°55'0 0.0
2017-Nov-15 06:26N 22°28' E 113°55'0 0.0
2017-Nov-15 05:53N 22°28' E 113°55'0 0.0
2017-Nov-15 05:26N 22°28' E 113°55'0 0.0
2017-Nov-15 04:59N 22°28' E 113°55'0 0.0
2017-Nov-15 04:29N 22°28' E 113°55'0 0.0
2017-Nov-15 03:59N 22°28' E 113°55'0 0.0
2017-Nov-15 03:29N 22°28' E 113°55'0 0.0
2017-Nov-15 02:59N 22°28' E 113°55'0 0.0
2017-Nov-15 02:26N 22°28' E 113°55'0 0.0
2017-Nov-15 01:56N 22°28' E 113°55'0 0.0
2017-Nov-15 01:29N 22°28' E 113°55'0 0.0
2017-Nov-15 00:59N 22°28' E 113°55'0 0.0
2017-Nov-15 00:29N 22°28' E 113°55'0 0.0
2017-Nov-14 23:59N 22°28' E 113°55'0 0.0
2017-Nov-14 23:29N 22°28' E 113°55'0 0.0
2017-Nov-14 22:59N 22°28' E 113°55'0 0.0
2017-Nov-14 22:26N 22°28' E 113°55'0 0.0
2017-Nov-14 21:59N 22°28' E 113°55'0 0.0
2017-Nov-14 21:29N 22°28' E 113°55'0 0.0
2017-Nov-14 20:59N 22°28' E 113°55'0 0.0
2017-Nov-14 20:26N 22°28' E 113°55'0 0.0
2017-Nov-14 19:59N 22°28' E 113°55'0 0.0
2017-Nov-14 19:26N 22°28' E 113°55'0 0.0
2017-Nov-14 18:59N 22°28' E 113°55'0 0.0
2017-Nov-14 18:29N 22°28' E 113°55'0 0.0
2017-Nov-14 17:59N 22°28' E 113°55'0 0.0
2017-Nov-14 17:29N 22°28' E 113°55'0 0.0
2017-Nov-14 16:59N 22°28' E 113°55'0 0.0
2017-Nov-14 16:29N 22°28' E 113°55'0 0.0
2017-Nov-14 15:59N 22°28' E 113°55'0 0.0
2017-Nov-14 15:29N 22°28' E 113°55'0 0.0
2017-Nov-14 14:53N 22°28' E 113°55'0 0.0
2017-Nov-14 14:26N 22°28' E 113°55'0 0.0
2017-Nov-14 13:59N 22°28' E 113°55'0 0.0
2017-Nov-14 13:23N 22°28' E 113°55'0 0.0
2017-Nov-14 12:59N 22°28' E 113°55'0 0.0
2017-Nov-14 12:29N 22°28' E 113°55'0 0.0
2017-Nov-14 11:59N 22°28' E 113°55'0 0.0
2017-Nov-14 11:29N 22°28' E 113°55'0 0.0
2017-Nov-14 10:59N 22°28' E 113°55'0 0.0
2017-Nov-14 10:29N 22°28' E 113°55'0 0.0
2017-Nov-14 09:56N 22°28' E 113°55'0 0.0
2017-Nov-14 09:29N 22°28' E 113°55'0 0.0
2017-Nov-14 08:56N 22°28' E 113°55'0 0.0
2017-Nov-14 08:29N 22°28' E 113°55'0 0.0
2017-Nov-14 07:59N 22°28' E 113°55'0 0.0
2017-Nov-14 07:29N 22°28' E 113°55'0 0.0
2017-Nov-14 07:00N 22°28' E 113°55'0 0.0
2017-Nov-14 06:28N 22°28' E 113°55'0 0.0
2017-Nov-14 05:55N 22°28' E 113°55'0 0.0
2017-Nov-14 05:25N 22°28' E 113°55'0 0.0
2017-Nov-14 04:58N 22°28' E 113°55'0 0.0
2017-Nov-14 04:28N 22°28' E 113°55'0 0.0
2017-Nov-14 03:58N 22°28' E 113°55'0 0.0
2017-Nov-14 03:28N 22°28' E 113°55'0 0.0
2017-Nov-14 02:58N 22°28' E 113°55'0 0.0
2017-Nov-14 02:28N 22°28' E 113°55'0 0.0
2017-Nov-14 02:01N 22°28' E 113°55'3 5.3
2017-Nov-14 01:30N 22°26' E 113°53'612.8
2017-Nov-14 01:00N 22°21' E 113°49'713.7
2017-Nov-14 00:30N 22°14' E 113°49'713.8
2017-Nov-14 00:00N 22°07' E 113°51'4 8.3
2017-Nov-13 23:30N 22°03' E 113°51'714.3
2017-Nov-13 23:00N 21°58' E 113°57'816.5
2017-Nov-13 22:30N 21°57' E 114°06'1316.4
2017-Nov-13 21:41N 21°59' E 114°20'  
Track history (hours):
 
Tides and Currents Weather Stations Pressure Air Temp Water Temp Dewpoint Dewpoint Depression Visibility Wind Speed Wind Dir Waves Ship Positions

Celebrity Century

Last reported at 2017-Nov-19 13:31 UTC. Time now 2017-Nov-24 22:23 UTC.
Position N 21°57' E 113°53'.

Length 251 m; draft 8 m.

Type: Passenger vessel. MMSI: 249054000.

Date/timePositionNaut miles runAvg speedWind from/ knotsBaromVisibWave heightAir tempDewpointWater temp
2017-Nov-19 13:31N 21°57' E 113°53'015.2
2017-Nov-19 13:30N 21°57' E 113°53'714.6
2017-Nov-19 13:00N 22°04' E 113°51'5 9.0
2017-Nov-19 12:30N 22°08' E 113°51'3 5.4
2017-Nov-19 12:00N 22°11' E 113°50'4 7.6
2017-Nov-19 11:30N 22°15' E 113°49'713.6
2017-Nov-19 11:00N 22°21' E 113°49'713.1
2017-Nov-19 10:30N 22°27' E 113°53'2 3.3
2017-Nov-19 09:58N 22°28' E 113°55'0 0.0
2017-Nov-19 09:28N 22°28' E 113°55'0 0.0
2017-Nov-19 08:58N 22°28' E 113°55'0 0.0
2017-Nov-19 08:28N 22°28' E 113°55'0 0.0
2017-Nov-19 07:55N 22°28' E 113°55'0 0.0
2017-Nov-19 07:28N 22°28' E 113°55'0 0.0
2017-Nov-19 06:58N 22°28' E 113°55'0 0.0
2017-Nov-19 06:25N 22°28' E 113°55'0 0.0
2017-Nov-19 05:58N 22°28' E 113°55'0 0.0
2017-Nov-19 05:28N 22°28' E 113°55'0 0.0
2017-Nov-19 04:58N 22°28' E 113°55'0 0.0
2017-Nov-19 04:28N 22°28' E 113°55'0 0.0
2017-Nov-19 03:58N 22°28' E 113°55'0 0.0
2017-Nov-19 03:28N 22°28' E 113°55'0 0.0
2017-Nov-19 02:58N 22°28' E 113°55'0 0.0
2017-Nov-19 02:28N 22°28' E 113°55'0 0.0
2017-Nov-19 02:00N 22°28' E 113°55'4 7.5
2017-Nov-19 01:30N 22°26' E 113°52'815.8
2017-Nov-19 01:00N 22°18' E 113°48'713.1
2017-Nov-19 00:30N 22°12' E 113°50'713.9
2017-Nov-19 00:00N 22°05' E 113°51'5 9.8
2017-Nov-18 23:30N 22°00' E 113°52'713.2
2017-Nov-18 23:00N 21°58' E 113°58'917.7
2017-Nov-18 22:30N 21°57' E 114°08'1218.2
2017-Nov-18 21:52N 21°59' E 114°20'718.9
2017-Nov-18 21:30N 22°00' E 114°27'1019.2
2017-Nov-18 20:59N 22°01' E 114°38'918.7
2017-Nov-18 20:30N 22°03' E 114°47'1019.2
2017-Nov-18 20:00N 22°06' E 114°57'1019.1
2017-Nov-18 19:30N 22°09' E 115°07'918.7
2017-Nov-18 19:00N 22°11' E 115°17'1018.5
2017-Nov-18 18:28N 22°13' E 115°28'  
2017-Nov-15 15:55N 22°15' E 115°35'718.1
2017-Nov-15 15:31N 22°13' E 115°27'918.2
2017-Nov-15 15:00N 22°10' E 115°17'918.0
2017-Nov-15 14:28N 22°08' E 115°07'817.9
2017-Nov-15 14:00N 22°06' E 114°59'917.8
2017-Nov-15 13:30N 22°05' E 114°49'917.8
2017-Nov-15 13:00N 22°03' E 114°40'917.6
2017-Nov-15 12:31N 22°01' E 114°31'917.5
2017-Nov-15 12:01N 21°59' E 114°21'1916.8
2017-Nov-15 10:53N 21°59' E 114°01'717.3
2017-Nov-15 10:30N 22°01' E 113°54'713.9
2017-Nov-15 10:00N 22°07' E 113°51'5 9.9
2017-Nov-15 09:30N 22°12' E 113°49'713.6
2017-Nov-15 09:01N 22°19' E 113°48'713.5
2017-Nov-15 08:30N 22°25' E 113°51'5 9.0
2017-Nov-15 08:01N 22°28' E 113°54'0 0.4
2017-Nov-15 07:29N 22°28' E 113°55'0 0.0
2017-Nov-15 06:56N 22°28' E 113°55'0 0.0
2017-Nov-15 06:26N 22°28' E 113°55'0 0.0
2017-Nov-15 05:53N 22°28' E 113°55'0 0.0
2017-Nov-15 05:26N 22°28' E 113°55'0 0.0
2017-Nov-15 04:59N 22°28' E 113°55'0 0.0
2017-Nov-15 04:29N 22°28' E 113°55'0 0.0
2017-Nov-15 03:59N 22°28' E 113°55'0 0.0
2017-Nov-15 03:29N 22°28' E 113°55'0 0.0
2017-Nov-15 02:59N 22°28' E 113°55'0 0.0
2017-Nov-15 02:26N 22°28' E 113°55'0 0.0
2017-Nov-15 01:56N 22°28' E 113°55'0 0.0
2017-Nov-15 01:29N 22°28' E 113°55'0 0.0
2017-Nov-15 00:59N 22°28' E 113°55'0 0.0
2017-Nov-15 00:29N 22°28' E 113°55'0 0.0
2017-Nov-14 23:59N 22°28' E 113°55'0 0.0
2017-Nov-14 23:29N 22°28' E 113°55'0 0.0
2017-Nov-14 22:59N 22°28' E 113°55'0 0.0
2017-Nov-14 22:26N 22°28' E 113°55'0 0.0
2017-Nov-14 21:59N 22°28' E 113°55'0 0.0
2017-Nov-14 21:29N 22°28' E 113°55'0 0.0
2017-Nov-14 20:59N 22°28' E 113°55'0 0.0
2017-Nov-14 20:26N 22°28' E 113°55'0 0.0
2017-Nov-14 19:59N 22°28' E 113°55'0 0.0
2017-Nov-14 19:26N 22°28' E 113°55'0 0.0
2017-Nov-14 18:59N 22°28' E 113°55'0 0.0
2017-Nov-14 18:29N 22°28' E 113°55'0 0.0
2017-Nov-14 17:59N 22°28' E 113°55'0 0.0
2017-Nov-14 17:29N 22°28' E 113°55'0 0.0
2017-Nov-14 16:59N 22°28' E 113°55'0 0.0
2017-Nov-14 16:29N 22°28' E 113°55'0 0.0
2017-Nov-14 15:59N 22°28' E 113°55'0 0.0
2017-Nov-14 15:29N 22°28' E 113°55'0 0.0
2017-Nov-14 14:53N 22°28' E 113°55'0 0.0
2017-Nov-14 14:26N 22°28' E 113°55'0 0.0
2017-Nov-14 13:59N 22°28' E 113°55'0 0.0
2017-Nov-14 13:23N 22°28' E 113°55'0 0.0
2017-Nov-14 12:59N 22°28' E 113°55'0 0.0
2017-Nov-14 12:29N 22°28' E 113°55'0 0.0
2017-Nov-14 11:59N 22°28' E 113°55'0 0.0
2017-Nov-14 11:29N 22°28' E 113°55'0 0.0
2017-Nov-14 10:59N 22°28' E 113°55'0 0.0
2017-Nov-14 10:29N 22°28' E 113°55'0 0.0
2017-Nov-14 09:56N 22°28' E 113°55'0 0.0
2017-Nov-14 09:29N 22°28' E 113°55'0 0.0
2017-Nov-14 08:56N 22°28' E 113°55'0 0.0
2017-Nov-14 08:29N 22°28' E 113°55'0 0.0
2017-Nov-14 07:59N 22°28' E 113°55'0 0.0
2017-Nov-14 07:29N 22°28' E 113°55'0 0.0
2017-Nov-14 07:00N 22°28' E 113°55'0 0.0
2017-Nov-14 06:28N 22°28' E 113°55'0 0.0
2017-Nov-14 05:55N 22°28' E 113°55'0 0.0
2017-Nov-14 05:25N 22°28' E 113°55'0 0.0
2017-Nov-14 04:58N 22°28' E 113°55'0 0.0
2017-Nov-14 04:28N 22°28' E 113°55'0 0.0
2017-Nov-14 03:58N 22°28' E 113°55'0 0.0
2017-Nov-14 03:28N 22°28' E 113°55'0 0.0
2017-Nov-14 02:58N 22°28' E 113°55'0 0.0
2017-Nov-14 02:28N 22°28' E 113°55'0 0.0
2017-Nov-14 02:01N 22°28' E 113°55'3 5.3
2017-Nov-14 01:30N 22°26' E 113°53'612.8
2017-Nov-14 01:00N 22°21' E 113°49'713.7
2017-Nov-14 00:30N 22°14' E 113°49'713.8
2017-Nov-14 00:00N 22°07' E 113°51'4 8.3
2017-Nov-13 23:30N 22°03' E 113°51'714.3
2017-Nov-13 23:00N 21°58' E 113°57'816.5
2017-Nov-13 22:30N 21°57' E 114°06'1316.4
2017-Nov-13 21:41N 21°59' E 114°20'  

Dump ship's entire track history